sensor_id;sensor_type;location;lat;lon;timestamp;P1;durP1;ratioP1;P2;durP2;ratioP2
65641;SDS011;52340;-6.720;108.544;2023-11-19T00:00:26;37.42;;;25.45;;
65641;SDS011;52340;-6.720;108.544;2023-11-19T00:01:28;40.10;;;25.70;;
65641;SDS011;52340;-6.720;108.544;2023-11-19T00:02:30;43.08;;;25.52;;
65641;SDS011;52340;-6.720;108.544;2023-11-19T00:03:32;39.53;;;26.05;;
65641;SDS011;52340;-6.720;108.544;2023-11-19T00:04:34;36.50;;;26.05;;
65641;SDS011;52340;-6.720;108.544;2023-11-19T00:05:37;41.92;;;26.05;;
65641;SDS011;52340;-6.720;108.544;2023-11-19T00:06:39;39.17;;;25.42;;
65641;SDS011;52340;-6.720;108.544;2023-11-19T00:07:41;39.75;;;25.75;;
65641;SDS011;52340;-6.720;108.544;2023-11-19T00:08:45;49.42;;;27.80;;
65641;SDS011;52340;-6.720;108.544;2023-11-19T00:09:47;39.75;;;26.95;;
65641;SDS011;52340;-6.720;108.544;2023-11-19T00:10:48;37.72;;;26.90;;
65641;SDS011;52340;-6.720;108.544;2023-11-19T00:11:50;40.03;;;26.33;;
65641;SDS011;52340;-6.720;108.544;2023-11-19T00:12:55;38.33;;;26.55;;
65641;SDS011;52340;-6.720;108.544;2023-11-19T00:13:59;37.38;;;26.27;;
65641;SDS011;52340;-6.720;108.544;2023-11-19T00:15:01;37.15;;;25.33;;
65641;SDS011;52340;-6.720;108.544;2023-11-19T00:16:03;36.63;;;26.33;;
65641;SDS011;52340;-6.720;108.544;2023-11-19T00:17:05;37.38;;;25.75;;
65641;SDS011;52340;-6.720;108.544;2023-11-19T00:18:06;37.35;;;24.30;;
65641;SDS011;52340;-6.720;108.544;2023-11-19T00:19:08;33.88;;;24.95;;
65641;SDS011;52340;-6.720;108.544;2023-11-19T00:20:10;35.88;;;24.88;;
65641;SDS011;52340;-6.720;108.544;2023-11-19T00:21:12;36.50;;;25.05;;
65641;SDS011;52340;-6.720;108.544;2023-11-19T00:22:14;37.45;;;25.10;;
65641;SDS011;52340;-6.720;108.544;2023-11-19T00:23:16;40.08;;;25.30;;
65641;SDS011;52340;-6.720;108.544;2023-11-19T00:24:18;34.53;;;23.67;;
65641;SDS011;52340;-6.720;108.544;2023-11-19T00:25:20;36.45;;;24.50;;
65641;SDS011;52340;-6.720;108.544;2023-11-19T00:26:21;37.78;;;24.90;;
65641;SDS011;52340;-6.720;108.544;2023-11-19T00:27:23;40.08;;;25.48;;
65641;SDS011;52340;-6.720;108.544;2023-11-19T00:28:25;36.92;;;25.75;;
65641;SDS011;52340;-6.720;108.544;2023-11-19T00:29:29;39.55;;;25.75;;
65641;SDS011;52340;-6.720;108.544;2023-11-19T00:30:30;39.33;;;26.92;;
65641;SDS011;52340;-6.720;108.544;2023-11-19T00:31:32;36.42;;;25.80;;
65641;SDS011;52340;-6.720;108.544;2023-11-19T00:32:33;39.60;;;26.60;;
65641;SDS011;52340;-6.720;108.544;2023-11-19T00:33:35;39.20;;;25.67;;
65641;SDS011;52340;-6.720;108.544;2023-11-19T00:34:37;41.45;;;25.33;;
65641;SDS011;52340;-6.720;108.544;2023-11-19T00:35:39;34.60;;;23.95;;
65641;SDS011;52340;-6.720;108.544;2023-11-19T00:36:40;34.00;;;24.80;;
65641;SDS011;52340;-6.720;108.544;2023-11-19T00:37:42;35.47;;;24.48;;
65641;SDS011;52340;-6.720;108.544;2023-11-19T00:38:44;34.25;;;25.35;;
65641;SDS011;52340;-6.720;108.544;2023-11-19T00:39:46;34.10;;;23.42;;
65641;SDS011;52340;-6.720;108.544;2023-11-19T00:40:48;38.97;;;23.98;;
65641;SDS011;52340;-6.720;108.544;2023-11-19T00:41:49;38.20;;;24.45;;
65641;SDS011;52340;-6.720;108.544;2023-11-19T00:42:52;34.60;;;23.73;;
65641;SDS011;52340;-6.720;108.544;2023-11-19T00:43:53;34.38;;;23.95;;
65641;SDS011;52340;-6.720;108.544;2023-11-19T00:44:57;35.85;;;24.48;;
65641;SDS011;52340;-6.720;108.544;2023-11-19T00:45:58;35.10;;;25.13;;
65641;SDS011;52340;-6.720;108.544;2023-11-19T00:47:00;36.60;;;25.55;;
65641;SDS011;52340;-6.720;108.544;2023-11-19T00:48:02;34.55;;;24.20;;
65641;SDS011;52340;-6.720;108.544;2023-11-19T00:49:04;36.33;;;25.30;;
65641;SDS011;52340;-6.720;108.544;2023-11-19T00:50:06;38.40;;;24.50;;
65641;SDS011;52340;-6.720;108.544;2023-11-19T00:51:08;37.45;;;25.67;;
65641;SDS011;52340;-6.720;108.544;2023-11-19T00:52:12;38.92;;;26.35;;
65641;SDS011;52340;-6.720;108.544;2023-11-19T00:53:14;39.50;;;26.10;;
65641;SDS011;52340;-6.720;108.544;2023-11-19T00:54:16;39.70;;;25.95;;
65641;SDS011;52340;-6.720;108.544;2023-11-19T00:55:17;39.20;;;26.15;;
65641;SDS011;52340;-6.720;108.544;2023-11-19T00:56:19;38.38;;;26.08;;
65641;SDS011;52340;-6.720;108.544;2023-11-19T00:57:21;39.85;;;27.00;;
65641;SDS011;52340;-6.720;108.544;2023-11-19T00:58:22;36.45;;;25.60;;
65641;SDS011;52340;-6.720;108.544;2023-11-19T00:59:24;37.92;;;26.42;;
65641;SDS011;52340;-6.720;108.544;2023-11-19T01:00:28;37.38;;;25.92;;
65641;SDS011;52340;-6.720;108.544;2023-11-19T01:01:29;39.17;;;25.92;;
65641;SDS011;52340;-6.720;108.544;2023-11-19T01:02:31;35.70;;;24.80;;
65641;SDS011;52340;-6.720;108.544;2023-11-19T01:03:33;36.60;;;25.40;;
65641;SDS011;52340;-6.720;108.544;2023-11-19T01:04:35;38.20;;;25.17;;
65641;SDS011;52340;-6.720;108.544;2023-11-19T01:05:37;38.60;;;25.95;;
65641;SDS011;52340;-6.720;108.544;2023-11-19T01:06:39;37.20;;;26.30;;
65641;SDS011;52340;-6.720;108.544;2023-11-19T01:07:40;37.95;;;26.00;;
65641;SDS011;52340;-6.720;108.544;2023-11-19T01:08:42;36.63;;;26.15;;
65641;SDS011;52340;-6.720;108.544;2023-11-19T01:09:44;39.90;;;27.50;;
65641;SDS011;52340;-6.720;108.544;2023-11-19T01:10:46;36.40;;;24.95;;
65641;SDS011;52340;-6.720;108.544;2023-11-19T01:11:47;37.72;;;26.05;;
65641;SDS011;52340;-6.720;108.544;2023-11-19T01:12:49;40.33;;;28.10;;
65641;SDS011;52340;-6.720;108.544;2023-11-19T01:13:51;42.40;;;30.17;;
65641;SDS011;52340;-6.720;108.544;2023-11-19T01:14:53;43.13;;;31.45;;
65641;SDS011;52340;-6.720;108.544;2023-11-19T01:15:56;46.42;;;30.70;;
65641;SDS011;52340;-6.720;108.544;2023-11-19T01:17:01;45.45;;;31.90;;
65641;SDS011;52340;-6.720;108.544;2023-11-19T01:18:02;49.58;;;33.05;;
65641;SDS011;52340;-6.720;108.544;2023-11-19T01:19:04;46.83;;;32.25;;
65641;SDS011;52340;-6.720;108.544;2023-11-19T01:20:06;45.15;;;30.40;;
65641;SDS011;52340;-6.720;108.544;2023-11-19T01:21:08;50.88;;;32.30;;
65641;SDS011;52340;-6.720;108.544;2023-11-19T01:22:10;46.13;;;30.88;;
65641;SDS011;52340;-6.720;108.544;2023-11-19T01:23:11;46.15;;;30.23;;
65641;SDS011;52340;-6.720;108.544;2023-11-19T01:24:13;43.45;;;28.42;;
65641;SDS011;52340;-6.720;108.544;2023-11-19T01:25:18;46.35;;;29.60;;
65641;SDS011;52340;-6.720;108.544;2023-11-19T01:26:20;44.50;;;28.98;;
65641;SDS011;52340;-6.720;108.544;2023-11-19T01:27:22;43.35;;;29.10;;
65641;SDS011;52340;-6.720;108.544;2023-11-19T01:28:24;41.97;;;28.98;;
65641;SDS011;52340;-6.720;108.544;2023-11-19T01:29:25;42.53;;;29.25;;
65641;SDS011;52340;-6.720;108.544;2023-11-19T01:30:27;40.63;;;28.25;;
65641;SDS011;52340;-6.720;108.544;2023-11-19T01:31:30;44.08;;;28.75;;
65641;SDS011;52340;-6.720;108.544;2023-11-19T01:32:32;40.15;;;28.17;;
65641;SDS011;52340;-6.720;108.544;2023-11-19T01:33:35;44.13;;;28.88;;
65641;SDS011;52340;-6.720;108.544;2023-11-19T01:34:37;39.50;;;28.40;;
65641;SDS011;52340;-6.720;108.544;2023-11-19T01:35:42;41.13;;;29.42;;
65641;SDS011;52340;-6.720;108.544;2023-11-19T01:36:43;35.50;;;25.05;;
65641;SDS011;52340;-6.720;108.544;2023-11-19T01:37:45;33.33;;;24.38;;
65641;SDS011;52340;-6.720;108.544;2023-11-19T01:38:49;36.20;;;24.70;;
65641;SDS011;52340;-6.720;108.544;2023-11-19T01:39:51;42.40;;;26.98;;
65641;SDS011;52340;-6.720;108.544;2023-11-19T01:40:55;37.85;;;25.85;;
65641;SDS011;52340;-6.720;108.544;2023-11-19T01:41:57;38.45;;;26.88;;
65641;SDS011;52340;-6.720;108.544;2023-11-19T01:42:59;41.58;;;26.40;;
65641;SDS011;52340;-6.720;108.544;2023-11-19T01:44:01;41.03;;;26.33;;
65641;SDS011;52340;-6.720;108.544;2023-11-19T01:45:03;36.40;;;25.00;;
65641;SDS011;52340;-6.720;108.544;2023-11-19T01:46:05;40.38;;;25.88;;
65641;SDS011;52340;-6.720;108.544;2023-11-19T01:47:09;36.17;;;24.08;;
65641;SDS011;52340;-6.720;108.544;2023-11-19T01:48:13;31.95;;;22.23;;
65641;SDS011;52340;-6.720;108.544;2023-11-19T01:49:18;34.22;;;22.17;;
65641;SDS011;52340;-6.720;108.544;2023-11-19T01:50:21;30.63;;;20.52;;
65641;SDS011;52340;-6.720;108.544;2023-11-19T01:51:25;29.35;;;20.58;;
65641;SDS011;52340;-6.720;108.544;2023-11-19T01:52:27;27.25;;;20.13;;
65641;SDS011;52340;-6.720;108.544;2023-11-19T01:53:28;25.40;;;18.63;;
65641;SDS011;52340;-6.720;108.544;2023-11-19T01:54:30;24.98;;;18.25;;
65641;SDS011;52340;-6.720;108.544;2023-11-19T01:55:32;24.83;;;16.67;;
65641;SDS011;52340;-6.720;108.544;2023-11-19T01:56:34;26.50;;;17.75;;
65641;SDS011;52340;-6.720;108.544;2023-11-19T01:57:36;24.40;;;17.70;;
65641;SDS011;52340;-6.720;108.544;2023-11-19T01:58:38;23.67;;;17.05;;
65641;SDS011;52340;-6.720;108.544;2023-11-19T01:59:40;24.23;;;17.08;;
65641;SDS011;52340;-6.720;108.544;2023-11-19T02:00:42;22.55;;;16.42;;
65641;SDS011;52340;-6.720;108.544;2023-11-19T02:01:45;23.52;;;16.67;;
65641;SDS011;52340;-6.720;108.544;2023-11-19T02:02:49;22.80;;;15.88;;
65641;SDS011;52340;-6.720;108.544;2023-11-19T02:03:51;19.95;;;14.98;;
65641;SDS011;52340;-6.720;108.544;2023-11-19T02:04:53;21.17;;;15.52;;
65641;SDS011;52340;-6.720;108.544;2023-11-19T02:05:55;21.58;;;15.38;;
65641;SDS011;52340;-6.720;108.544;2023-11-19T02:06:56;21.80;;;15.30;;
65641;SDS011;52340;-6.720;108.544;2023-11-19T02:07:59;23.40;;;15.60;;
65641;SDS011;52340;-6.720;108.544;2023-11-19T02:09:01;24.75;;;16.08;;
65641;SDS011;52340;-6.720;108.544;2023-11-19T02:10:03;20.23;;;15.18;;
65641;SDS011;52340;-6.720;108.544;2023-11-19T02:11:05;21.77;;;15.65;;
65641;SDS011;52340;-6.720;108.544;2023-11-19T02:12:07;21.15;;;16.05;;
65641;SDS011;52340;-6.720;108.544;2023-11-19T02:13:09;21.73;;;15.52;;
65641;SDS011;52340;-6.720;108.544;2023-11-19T02:14:10;19.80;;;15.05;;
65641;SDS011;52340;-6.720;108.544;2023-11-19T02:15:12;20.95;;;15.60;;
65641;SDS011;52340;-6.720;108.544;2023-11-19T02:16:14;20.45;;;14.95;;
65641;SDS011;52340;-6.720;108.544;2023-11-19T02:17:25;20.58;;;14.88;;
65641;SDS011;52340;-6.720;108.544;2023-11-19T02:18:29;20.95;;;14.45;;
65641;SDS011;52340;-6.720;108.544;2023-11-19T02:19:34;19.55;;;13.75;;
65641;SDS011;52340;-6.720;108.544;2023-11-19T02:20:38;19.60;;;14.23;;
65641;SDS011;52340;-6.720;108.544;2023-11-19T02:21:40;20.75;;;14.27;;
65641;SDS011;52340;-6.720;108.544;2023-11-19T02:22:41;22.05;;;14.93;;
65641;SDS011;52340;-6.720;108.544;2023-11-19T02:23:43;20.88;;;14.65;;
65641;SDS011;52340;-6.720;108.544;2023-11-19T02:24:45;20.23;;;14.80;;
65641;SDS011;52340;-6.720;108.544;2023-11-19T02:25:51;19.55;;;14.32;;
65641;SDS011;52340;-6.720;108.544;2023-11-19T02:27:05;18.38;;;14.38;;
65641;SDS011;52340;-6.720;108.544;2023-11-19T02:28:13;17.55;;;13.80;;
65641;SDS011;52340;-6.720;108.544;2023-11-19T02:29:15;18.70;;;14.18;;
65641;SDS011;52340;-6.720;108.544;2023-11-19T02:30:16;18.33;;;13.73;;
65641;SDS011;52340;-6.720;108.544;2023-11-19T02:31:18;19.63;;;14.65;;
65641;SDS011;52340;-6.720;108.544;2023-11-19T02:32:21;19.17;;;13.90;;
65641;SDS011;52340;-6.720;108.544;2023-11-19T02:33:23;20.35;;;13.85;;
65641;SDS011;52340;-6.720;108.544;2023-11-19T02:34:25;19.20;;;13.75;;
65641;SDS011;52340;-6.720;108.544;2023-11-19T02:35:27;20.98;;;14.10;;
65641;SDS011;52340;-6.720;108.544;2023-11-19T02:36:29;22.05;;;14.50;;
65641;SDS011;52340;-6.720;108.544;2023-11-19T02:37:30;20.58;;;14.70;;
65641;SDS011;52340;-6.720;108.544;2023-11-19T02:38:32;21.58;;;14.57;;
65641;SDS011;52340;-6.720;108.544;2023-11-19T02:39:34;19.42;;;14.40;;
65641;SDS011;52340;-6.720;108.544;2023-11-19T02:40:35;25.98;;;14.32;;
65641;SDS011;52340;-6.720;108.544;2023-11-19T02:41:37;21.42;;;14.68;;
65641;SDS011;52340;-6.720;108.544;2023-11-19T02:42:39;20.40;;;14.90;;
65641;SDS011;52340;-6.720;108.544;2023-11-19T02:43:42;20.85;;;15.25;;
65641;SDS011;52340;-6.720;108.544;2023-11-19T02:44:44;20.15;;;14.55;;
65641;SDS011;52340;-6.720;108.544;2023-11-19T02:45:46;19.85;;;14.93;;
65641;SDS011;52340;-6.720;108.544;2023-11-19T02:46:47;17.88;;;13.90;;
65641;SDS011;52340;-6.720;108.544;2023-11-19T02:47:49;19.45;;;13.98;;
65641;SDS011;52340;-6.720;108.544;2023-11-19T02:48:51;19.77;;;14.57;;
65641;SDS011;52340;-6.720;108.544;2023-11-19T02:49:53;19.73;;;14.48;;
65641;SDS011;52340;-6.720;108.544;2023-11-19T02:50:54;18.70;;;14.98;;
65641;SDS011;52340;-6.720;108.544;2023-11-19T02:51:56;19.35;;;14.32;;
65641;SDS011;52340;-6.720;108.544;2023-11-19T02:52:58;19.73;;;15.07;;
65641;SDS011;52340;-6.720;108.544;2023-11-19T02:54:01;20.35;;;14.73;;
65641;SDS011;52340;-6.720;108.544;2023-11-19T02:55:06;20.13;;;14.43;;
65641;SDS011;52340;-6.720;108.544;2023-11-19T02:56:08;19.85;;;14.20;;
65641;SDS011;52340;-6.720;108.544;2023-11-19T02:57:09;17.50;;;13.43;;
65641;SDS011;52340;-6.720;108.544;2023-11-19T02:58:11;18.55;;;14.00;;
65641;SDS011;52340;-6.720;108.544;2023-11-19T02:59:15;18.17;;;13.48;;
65641;SDS011;52340;-6.720;108.544;2023-11-19T03:00:17;18.25;;;13.07;;
65641;SDS011;52340;-6.720;108.544;2023-11-19T03:01:22;17.20;;;13.35;;
65641;SDS011;52340;-6.720;108.544;2023-11-19T03:02:24;19.73;;;13.48;;
65641;SDS011;52340;-6.720;108.544;2023-11-19T03:03:26;18.63;;;13.27;;
65641;SDS011;52340;-6.720;108.544;2023-11-19T03:04:28;20.25;;;14.48;;
65641;SDS011;52340;-6.720;108.544;2023-11-19T03:05:30;18.17;;;13.70;;
65641;SDS011;52340;-6.720;108.544;2023-11-19T03:06:31;18.42;;;13.65;;
65641;SDS011;52340;-6.720;108.544;2023-11-19T03:07:33;18.60;;;13.13;;
65641;SDS011;52340;-6.720;108.544;2023-11-19T03:08:35;18.73;;;13.30;;
65641;SDS011;52340;-6.720;108.544;2023-11-19T03:09:37;20.30;;;13.65;;
65641;SDS011;52340;-6.720;108.544;2023-11-19T03:10:39;19.52;;;12.90;;
65641;SDS011;52340;-6.720;108.544;2023-11-19T03:11:40;17.92;;;12.80;;
65641;SDS011;52340;-6.720;108.544;2023-11-19T03:12:45;18.55;;;13.20;;
65641;SDS011;52340;-6.720;108.544;2023-11-19T03:13:52;16.17;;;12.43;;
65641;SDS011;52340;-6.720;108.544;2023-11-19T03:14:56;16.30;;;12.55;;
65641;SDS011;52340;-6.720;108.544;2023-11-19T03:15:58;18.42;;;13.57;;
65641;SDS011;52340;-6.720;108.544;2023-11-19T03:16:59;18.50;;;12.68;;
65641;SDS011;52340;-6.720;108.544;2023-11-19T03:18:01;17.65;;;12.68;;
65641;SDS011;52340;-6.720;108.544;2023-11-19T03:19:03;18.80;;;12.43;;
65641;SDS011;52340;-6.720;108.544;2023-11-19T03:20:05;17.25;;;12.43;;
65641;SDS011;52340;-6.720;108.544;2023-11-19T03:21:07;18.25;;;12.77;;
65641;SDS011;52340;-6.720;108.544;2023-11-19T03:22:09;17.38;;;12.98;;
65641;SDS011;52340;-6.720;108.544;2023-11-19T03:23:11;17.25;;;12.80;;
65641;SDS011;52340;-6.720;108.544;2023-11-19T03:24:13;17.27;;;12.88;;
65641;SDS011;52340;-6.720;108.544;2023-11-19T03:25:14;17.35;;;12.63;;
65641;SDS011;52340;-6.720;108.544;2023-11-19T03:26:16;18.05;;;12.95;;
65641;SDS011;52340;-6.720;108.544;2023-11-19T03:27:18;18.40;;;13.23;;
65641;SDS011;52340;-6.720;108.544;2023-11-19T03:28:19;16.60;;;12.40;;
65641;SDS011;52340;-6.720;108.544;2023-11-19T03:29:21;22.05;;;13.05;;
65641;SDS011;52340;-6.720;108.544;2023-11-19T03:30:24;17.52;;;13.05;;
65641;SDS011;52340;-6.720;108.544;2023-11-19T03:31:26;17.10;;;13.43;;
65641;SDS011;52340;-6.720;108.544;2023-11-19T03:32:28;17.60;;;13.23;;
65641;SDS011;52340;-6.720;108.544;2023-11-19T03:33:29;17.38;;;13.57;;
65641;SDS011;52340;-6.720;108.544;2023-11-19T03:34:31;17.48;;;13.55;;
65641;SDS011;52340;-6.720;108.544;2023-11-19T03:35:33;19.67;;;13.80;;
65641;SDS011;52340;-6.720;108.544;2023-11-19T03:36:35;18.30;;;13.77;;
65641;SDS011;52340;-6.720;108.544;2023-11-19T03:37:37;18.30;;;13.88;;
65641;SDS011;52340;-6.720;108.544;2023-11-19T03:38:38;16.10;;;13.00;;
65641;SDS011;52340;-6.720;108.544;2023-11-19T03:39:40;18.00;;;13.07;;
65641;SDS011;52340;-6.720;108.544;2023-11-19T03:40:42;19.00;;;13.48;;
65641;SDS011;52340;-6.720;108.544;2023-11-19T03:41:45;16.98;;;13.52;;
65641;SDS011;52340;-6.720;108.544;2023-11-19T03:42:47;18.20;;;14.27;;
65641;SDS011;52340;-6.720;108.544;2023-11-19T03:43:48;19.15;;;14.32;;
65641;SDS011;52340;-6.720;108.544;2023-11-19T03:44:50;17.95;;;14.30;;
65641;SDS011;52340;-6.720;108.544;2023-11-19T03:45:54;19.15;;;15.13;;
65641;SDS011;52340;-6.720;108.544;2023-11-19T03:46:59;18.38;;;14.27;;
65641;SDS011;52340;-6.720;108.544;2023-11-19T03:48:00;20.25;;;14.13;;
65641;SDS011;52340;-6.720;108.544;2023-11-19T03:49:02;21.08;;;14.85;;
65641;SDS011;52340;-6.720;108.544;2023-11-19T03:50:04;18.52;;;14.10;;
65641;SDS011;52340;-6.720;108.544;2023-11-19T03:51:07;18.33;;;14.20;;
65641;SDS011;52340;-6.720;108.544;2023-11-19T03:52:08;19.13;;;14.63;;
65641;SDS011;52340;-6.720;108.544;2023-11-19T03:53:11;20.13;;;14.82;;
65641;SDS011;52340;-6.720;108.544;2023-11-19T03:54:13;23.35;;;14.30;;
65641;SDS011;52340;-6.720;108.544;2023-11-19T03:55:17;18.40;;;14.48;;
65641;SDS011;52340;-6.720;108.544;2023-11-19T03:56:19;17.95;;;14.15;;
65641;SDS011;52340;-6.720;108.544;2023-11-19T03:57:20;19.15;;;14.68;;
65641;SDS011;52340;-6.720;108.544;2023-11-19T03:58:22;19.88;;;14.15;;
65641;SDS011;52340;-6.720;108.544;2023-11-19T03:59:24;18.67;;;13.77;;
65641;SDS011;52340;-6.720;108.544;2023-11-19T04:00:25;17.90;;;13.55;;
65641;SDS011;52340;-6.720;108.544;2023-11-19T04:01:29;17.17;;;13.82;;
65641;SDS011;52340;-6.720;108.544;2023-11-19T04:02:30;18.42;;;14.35;;
65641;SDS011;52340;-6.720;108.544;2023-11-19T04:03:32;19.27;;;14.10;;
65641;SDS011;52340;-6.720;108.544;2023-11-19T04:04:34;18.27;;;14.10;;
65641;SDS011;52340;-6.720;108.544;2023-11-19T04:05:35;16.60;;;13.82;;
65641;SDS011;52340;-6.720;108.544;2023-11-19T04:06:40;18.52;;;14.32;;
65641;SDS011;52340;-6.720;108.544;2023-11-19T04:07:41;18.10;;;12.93;;
65641;SDS011;52340;-6.720;108.544;2023-11-19T04:08:43;17.52;;;13.82;;
65641;SDS011;52340;-6.720;108.544;2023-11-19T04:09:45;18.15;;;14.13;;
65641;SDS011;52340;-6.720;108.544;2023-11-19T04:10:47;18.58;;;13.73;;
65641;SDS011;52340;-6.720;108.544;2023-11-19T04:11:48;19.85;;;13.65;;
65641;SDS011;52340;-6.720;108.544;2023-11-19T04:12:50;17.60;;;13.68;;
65641;SDS011;52340;-6.720;108.544;2023-11-19T04:13:51;18.90;;;14.20;;
65641;SDS011;52340;-6.720;108.544;2023-11-19T04:14:56;18.38;;;13.43;;
65641;SDS011;52340;-6.720;108.544;2023-11-19T04:15:57;18.65;;;14.25;;
65641;SDS011;52340;-6.720;108.544;2023-11-19T04:17:01;18.92;;;14.05;;
65641;SDS011;52340;-6.720;108.544;2023-11-19T04:18:03;18.17;;;13.68;;
65641;SDS011;52340;-6.720;108.544;2023-11-19T04:19:04;18.10;;;14.30;;
65641;SDS011;52340;-6.720;108.544;2023-11-19T04:20:09;17.58;;;13.73;;
65641;SDS011;52340;-6.720;108.544;2023-11-19T04:21:14;18.85;;;14.10;;
65641;SDS011;52340;-6.720;108.544;2023-11-19T04:22:16;19.15;;;13.55;;
65641;SDS011;52340;-6.720;108.544;2023-11-19T04:23:18;17.30;;;13.57;;
65641;SDS011;52340;-6.720;108.544;2023-11-19T04:24:20;19.92;;;14.07;;
65641;SDS011;52340;-6.720;108.544;2023-11-19T04:25:21;17.35;;;13.38;;
65641;SDS011;52340;-6.720;108.544;2023-11-19T04:26:23;18.98;;;14.05;;
65641;SDS011;52340;-6.720;108.544;2023-11-19T04:27:25;22.05;;;13.20;;
65641;SDS011;52340;-6.720;108.544;2023-11-19T04:28:26;17.58;;;13.73;;
65641;SDS011;52340;-6.720;108.544;2023-11-19T04:29:30;18.77;;;13.85;;
65641;SDS011;52340;-6.720;108.544;2023-11-19T04:30:32;18.20;;;13.68;;
65641;SDS011;52340;-6.720;108.544;2023-11-19T04:31:33;16.98;;;13.55;;
65641;SDS011;52340;-6.720;108.544;2023-11-19T04:32:37;18.77;;;13.68;;
65641;SDS011;52340;-6.720;108.544;2023-11-19T04:33:38;16.67;;;13.20;;
65641;SDS011;52340;-6.720;108.544;2023-11-19T04:34:40;16.42;;;12.50;;
65641;SDS011;52340;-6.720;108.544;2023-11-19T04:35:42;16.35;;;12.73;;
65641;SDS011;52340;-6.720;108.544;2023-11-19T04:36:43;17.05;;;13.20;;
65641;SDS011;52340;-6.720;108.544;2023-11-19T04:37:47;18.25;;;13.65;;
65641;SDS011;52340;-6.720;108.544;2023-11-19T04:38:49;17.85;;;13.15;;
65641;SDS011;52340;-6.720;108.544;2023-11-19T04:39:53;16.73;;;13.10;;
65641;SDS011;52340;-6.720;108.544;2023-11-19T04:40:55;17.63;;;13.60;;
65641;SDS011;52340;-6.720;108.544;2023-11-19T04:41:57;20.42;;;14.50;;
65641;SDS011;52340;-6.720;108.544;2023-11-19T04:42:58;23.15;;;14.63;;
65641;SDS011;52340;-6.720;108.544;2023-11-19T04:44:00;18.17;;;12.95;;
65641;SDS011;52340;-6.720;108.544;2023-11-19T04:45:02;18.48;;;13.75;;
65641;SDS011;52340;-6.720;108.544;2023-11-19T04:46:04;17.25;;;13.13;;
65641;SDS011;52340;-6.720;108.544;2023-11-19T04:47:06;19.02;;;13.52;;
65641;SDS011;52340;-6.720;108.544;2023-11-19T04:48:10;17.75;;;14.05;;
65641;SDS011;52340;-6.720;108.544;2023-11-19T04:49:12;16.60;;;12.93;;
65641;SDS011;52340;-6.720;108.544;2023-11-19T04:50:14;16.45;;;12.90;;
65641;SDS011;52340;-6.720;108.544;2023-11-19T04:51:15;26.90;;;16.33;;
65641;SDS011;52340;-6.720;108.544;2023-11-19T04:52:17;35.80;;;20.13;;
65641;SDS011;52340;-6.720;108.544;2023-11-19T04:53:19;50.53;;;24.38;;
65641;SDS011;52340;-6.720;108.544;2023-11-19T04:54:20;51.53;;;23.23;;
65641;SDS011;52340;-6.720;108.544;2023-11-19T04:55:22;55.92;;;26.60;;
65641;SDS011;52340;-6.720;108.544;2023-11-19T04:56:24;52.70;;;25.45;;
65641;SDS011;52340;-6.720;108.544;2023-11-19T04:57:25;24.80;;;16.48;;
65641;SDS011;52340;-6.720;108.544;2023-11-19T04:58:29;28.70;;;16.55;;
65641;SDS011;52340;-6.720;108.544;2023-11-19T04:59:30;54.30;;;25.13;;
65641;SDS011;52340;-6.720;108.544;2023-11-19T05:00:34;33.70;;;19.85;;
65641;SDS011;52340;-6.720;108.544;2023-11-19T05:01:36;32.22;;;19.00;;
65641;SDS011;52340;-6.720;108.544;2023-11-19T05:02:40;40.28;;;21.25;;
65641;SDS011;52340;-6.720;108.544;2023-11-19T05:03:46;41.97;;;20.98;;
65641;SDS011;52340;-6.720;108.544;2023-11-19T05:04:49;47.17;;;23.70;;
65641;SDS011;52340;-6.720;108.544;2023-11-19T05:05:51;41.13;;;21.67;;
65641;SDS011;52340;-6.720;108.544;2023-11-19T05:06:56;40.28;;;21.55;;
65641;SDS011;52340;-6.720;108.544;2023-11-19T05:08:01;34.00;;;19.60;;
65641;SDS011;52340;-6.720;108.544;2023-11-19T05:09:03;27.67;;;16.83;;
65641;SDS011;52340;-6.720;108.544;2023-11-19T05:10:05;26.42;;;17.20;;
65641;SDS011;52340;-6.720;108.544;2023-11-19T05:11:07;29.95;;;17.70;;
65641;SDS011;52340;-6.720;108.544;2023-11-19T05:12:09;42.53;;;22.17;;
65641;SDS011;52340;-6.720;108.544;2023-11-19T05:13:10;26.10;;;17.35;;
65641;SDS011;52340;-6.720;108.544;2023-11-19T05:14:12;31.55;;;18.40;;
65641;SDS011;52340;-6.720;108.544;2023-11-19T05:15:14;29.88;;;17.77;;
65641;SDS011;52340;-6.720;108.544;2023-11-19T05:16:16;25.05;;;16.27;;
65641;SDS011;52340;-6.720;108.544;2023-11-19T05:17:19;26.42;;;17.13;;
65641;SDS011;52340;-6.720;108.544;2023-11-19T05:18:21;30.02;;;18.48;;
65641;SDS011;52340;-6.720;108.544;2023-11-19T05:19:24;26.38;;;17.00;;
65641;SDS011;52340;-6.720;108.544;2023-11-19T05:20:28;33.10;;;18.23;;
65641;SDS011;52340;-6.720;108.544;2023-11-19T05:21:30;30.35;;;17.98;;
65641;SDS011;52340;-6.720;108.544;2023-11-19T05:23:40;23.95;;;16.13;;
65641;SDS011;52340;-6.720;108.544;2023-11-19T05:24:42;22.17;;;15.85;;
65641;SDS011;52340;-6.720;108.544;2023-11-19T05:25:44;23.20;;;15.93;;
65641;SDS011;52340;-6.720;108.544;2023-11-19T05:26:45;23.55;;;14.75;;
65641;SDS011;52340;-6.720;108.544;2023-11-19T05:27:47;20.50;;;14.70;;
65641;SDS011;52340;-6.720;108.544;2023-11-19T05:28:49;22.45;;;15.15;;
65641;SDS011;52340;-6.720;108.544;2023-11-19T05:29:50;20.33;;;15.00;;
65641;SDS011;52340;-6.720;108.544;2023-11-19T05:30:52;21.63;;;14.93;;
65641;SDS011;52340;-6.720;108.544;2023-11-19T05:31:54;18.10;;;14.45;;
65641;SDS011;52340;-6.720;108.544;2023-11-19T05:32:56;20.42;;;14.27;;
65641;SDS011;52340;-6.720;108.544;2023-11-19T05:33:57;18.83;;;13.95;;
65641;SDS011;52340;-6.720;108.544;2023-11-19T05:35:01;20.35;;;14.23;;
65641;SDS011;52340;-6.720;108.544;2023-11-19T05:36:03;20.73;;;14.75;;
65641;SDS011;52340;-6.720;108.544;2023-11-19T05:37:05;18.48;;;13.65;;
65641;SDS011;52340;-6.720;108.544;2023-11-19T05:38:07;17.90;;;13.63;;
65641;SDS011;52340;-6.720;108.544;2023-11-19T05:39:11;18.73;;;12.85;;
65641;SDS011;52340;-6.720;108.544;2023-11-19T05:40:13;17.52;;;13.20;;
65641;SDS011;52340;-6.720;108.544;2023-11-19T05:41:15;17.23;;;13.20;;
65641;SDS011;52340;-6.720;108.544;2023-11-19T05:42:16;17.05;;;13.18;;
65641;SDS011;52340;-6.720;108.544;2023-11-19T05:43:18;15.98;;;13.25;;
65641;SDS011;52340;-6.720;108.544;2023-11-19T05:44:20;19.15;;;13.68;;
65641;SDS011;52340;-6.720;108.544;2023-11-19T05:45:21;18.10;;;13.90;;
65641;SDS011;52340;-6.720;108.544;2023-11-19T05:46:23;16.63;;;12.98;;
65641;SDS011;52340;-6.720;108.544;2023-11-19T05:47:25;17.27;;;13.35;;
65641;SDS011;52340;-6.720;108.544;2023-11-19T05:48:26;16.08;;;13.30;;
65641;SDS011;52340;-6.720;108.544;2023-11-19T05:49:28;17.15;;;13.32;;
65641;SDS011;52340;-6.720;108.544;2023-11-19T05:50:32;17.77;;;12.90;;
65641;SDS011;52340;-6.720;108.544;2023-11-19T05:51:36;17.08;;;13.07;;
65641;SDS011;52340;-6.720;108.544;2023-11-19T05:52:37;16.88;;;11.80;;
65641;SDS011;52340;-6.720;108.544;2023-11-19T05:53:39;16.00;;;12.32;;
65641;SDS011;52340;-6.720;108.544;2023-11-19T05:54:41;15.63;;;11.73;;